Hovedside
METAR-TAF:

METAR-TAF

Lufthavner :

Weno, Mikronesia

breddegrad: 07-28N, lengdegrad: 151-51E, høyde over havet: 3 m

Gjeldene værobservasjon

Denne rapporten ble laget for 33 minutter siden, klokken 08:51 UTC
Vind 10 kt fra Sør-sørvest med vindkast opp mot 18 kt
Temperatur 28°C
Luftfuktighet 84%
Trykk 1009 hPa
Sikt: 24.1 km
Spredte skyer i en høyde av 1200 ft, Bygeskyer.
Brutte skyer i en høyde av 12000 ft
Overskyet i en høyde av 28000 ft

METAR: PTKK 190851Z 21010G18KT 15SM SCT012CB BKN120 OVC280 28/25 A2980 RMK CB ALQDS MOV NE SLP093 60002 8/371 T02810252 52019

Tid: 19:24 (09:24 UTC)

Varsel

Denne rapporten ble laget for 4 timer og 4 minutter siden, klokken 05:20 UTC
Varsel gyldig fra 19. klokken 06 UTC til 20. klokken 06 UTC
Vind 10 kt fra Sør-sørvest
Sikt: 10 km
Spredte skyer i en høyde av 1200 ft
Brutte skyer i en høyde av 12000 ft
Overskyet i en høyde av 28000 ft
regnbyger i nærheten

TAF: PTKK 190520Z 1906/2006 20010KT P6SM VCSH SCT012 BKN120 OVC280

Værobservasjoner og værvarsel for over 4000 flyplasser (METAR- og TAF-rapporter).

Tilgjengelige stasjoner er representert av de røde og gule prikkene på kartet.

Hold musepekeren over prikken for å se navnet på stasjonen.

Klikk så for å se værobservasjoner og -varsler.

For å forandre kartet kan du klikke på den grønne knappen med svart kryss for å zoome inn, på den grønne knappen med strek for å zoome ut, eller på de grønne pilene for å se tilstøtende kart.


METAR-TAF: